createdAt,value
2023-09-06T00:01:22.306Z,99.6
2023-09-06T00:03:03.025Z,99.6
2023-09-06T00:04:43.755Z,99.6
2023-09-06T00:06:24.539Z,99.6
2023-09-06T00:08:05.097Z,99.5
2023-09-06T00:09:45.800Z,99.5
2023-09-06T00:11:26.423Z,99.5
2023-09-06T00:13:06.941Z,99.6
2023-09-06T00:14:47.446Z,99.5
2023-09-06T00:16:27.917Z,99.6
2023-09-06T00:18:08.679Z,99.5
2023-09-06T00:19:49.244Z,99.5
2023-09-06T00:21:30.076Z,99.5
2023-09-06T00:23:10.946Z,99.5
2023-09-06T00:24:51.504Z,99.6
2023-09-06T00:26:32.063Z,99.5
2023-09-06T00:28:12.540Z,99.6
2023-09-06T00:29:53.035Z,99.5
2023-09-06T00:31:33.533Z,99.6
2023-09-06T00:33:14.000Z,99.5
2023-09-06T00:34:54.549Z,99.6
2023-09-06T00:36:35.376Z,99.6
2023-09-06T00:38:16.030Z,99.5
2023-09-06T00:39:56.722Z,99.5
2023-09-06T00:43:34.750Z,99.5
2023-09-06T00:45:15.312Z,99.5
2023-09-06T00:46:55.857Z,99.5
2023-09-06T00:48:36.566Z,99.5
2023-09-06T00:50:17.184Z,99.5
2023-09-06T00:51:57.757Z,99.6
2023-09-06T00:53:38.315Z,99.5
2023-09-06T00:55:18.860Z,99.5
2023-09-06T00:56:59.373Z,99.5
2023-09-06T00:58:39.881Z,99.5
2023-09-06T01:00:20.392Z,99.5
2023-09-06T01:02:01.244Z,99.5
2023-09-06T01:03:42.232Z,99.5
2023-09-06T01:05:23.130Z,99.5
2023-09-06T01:07:03.730Z,99.5
2023-09-06T01:08:44.348Z,99.5
2023-09-06T01:10:24.912Z,99.5
2023-09-06T01:12:05.523Z,99.5
2023-09-06T01:13:46.024Z,99.5
2023-09-06T01:15:26.669Z,99.5
2023-09-06T01:17:07.326Z,99.5
2023-09-06T01:18:47.998Z,99.5
2023-09-06T01:20:28.598Z,99.5
2023-09-06T01:22:09.352Z,99.6
2023-09-06T01:23:49.878Z,99.6
2023-09-06T01:25:30.441Z,99.6
2023-09-06T01:27:11.117Z,99.5
2023-09-06T01:28:51.578Z,99.5
2023-09-06T01:30:32.223Z,99.6
2023-09-06T01:32:12.882Z,99.7
2023-09-06T01:33:53.377Z,99.6
2023-09-06T01:35:34.017Z,99.6
2023-09-06T01:37:14.607Z,99.6
2023-09-06T01:38:55.212Z,99.6
2023-09-06T01:40:35.678Z,99.6
2023-09-06T01:42:16.129Z,99.6
2023-09-06T01:43:57.163Z,99.6
2023-09-06T01:45:37.736Z,99.6
2023-09-06T01:47:18.338Z,99.5
2023-09-06T01:48:58.862Z,99.6
2023-09-06T01:50:39.440Z,99.6
2023-09-06T01:52:20.038Z,99.5
2023-09-06T01:54:00.454Z,99.6
2023-09-06T01:55:41.011Z,99.5
2023-09-06T01:57:21.461Z,99.5
2023-09-06T01:59:01.979Z,99.5
2023-09-06T02:00:42.534Z,99.5
2023-09-06T02:03:15.273Z,99.6
2023-09-06T02:04:55.903Z,99.5
2023-09-06T02:06:36.377Z,99.6
2023-09-06T02:08:16.963Z,99.5
2023-09-06T02:09:57.453Z,99.6
2023-09-06T02:11:38.142Z,99.6
2023-09-06T02:13:18.793Z,99.5
2023-09-06T02:14:59.361Z,99.5
2023-09-06T02:16:39.892Z,99.4
2023-09-06T02:18:20.585Z,99.4
2023-09-06T02:20:01.129Z,99.5
2023-09-06T02:21:41.888Z,99.5
2023-09-06T02:23:22.487Z,99.5
2023-09-06T02:25:03.032Z,99.5
2023-09-06T02:26:43.587Z,99.6
2023-09-06T02:28:24.149Z,99.5
2023-09-06T02:30:04.787Z,99.6
2023-09-06T02:31:45.467Z,99.5
2023-09-06T02:33:26.158Z,99.5
2023-09-06T02:35:06.670Z,99.5
2023-09-06T02:36:47.338Z,99.6
2023-09-06T02:38:28.181Z,99.5
2023-09-06T02:40:09.254Z,99.5
2023-09-06T02:41:49.939Z,99.4
2023-09-06T02:43:30.483Z,99.5
2023-09-06T02:45:11.073Z,99.5
2023-09-06T02:46:51.582Z,99.5
2023-09-06T02:48:32.229Z,99.6
2023-09-06T02:50:12.751Z,99.5
2023-09-06T02:51:53.174Z,99.5
2023-09-06T02:53:34.230Z,99.4
2023-09-06T02:55:15.130Z,99.4
2023-09-06T02:56:55.669Z,99.4
2023-09-06T02:58:36.134Z,99.4
2023-09-06T03:00:16.592Z,99.5
2023-09-06T03:01:57.138Z,99.4
2023-09-06T03:03:38.133Z,99.4
2023-09-06T03:05:18.936Z,99.4
2023-09-06T03:06:59.708Z,99.4
2023-09-06T03:08:40.313Z,99.3
2023-09-06T03:10:20.866Z,99.3
2023-09-06T03:12:01.399Z,99.4
2023-09-06T03:13:41.998Z,99.4
2023-09-06T03:15:22.422Z,99.4
2023-09-06T03:17:02.884Z,99.3
2023-09-06T03:18:43.350Z,99.4
2023-09-06T03:20:23.853Z,99.3
2023-09-06T03:22:04.358Z,99.3
2023-09-06T03:23:44.987Z,99.2
2023-09-06T03:25:25.475Z,99.3
2023-09-06T03:27:06.012Z,99.4
2023-09-06T03:28:46.550Z,99.3
2023-09-06T03:30:27.191Z,99.3
2023-09-06T03:32:07.852Z,99.3
2023-09-06T03:33:48.567Z,99.3
2023-09-06T03:35:29.002Z,99.3
2023-09-06T03:37:09.471Z,99.2
2023-09-06T03:38:50.001Z,99.3
2023-09-06T03:40:30.477Z,99.3
2023-09-06T03:42:11.044Z,99.3
2023-09-06T03:43:51.561Z,99.3
2023-09-06T03:45:32.041Z,99.3
2023-09-06T03:47:12.651Z,99.2
2023-09-06T03:48:53.498Z,99.3
2023-09-06T03:50:34.231Z,99.2
2023-09-06T03:54:12.080Z,99.3
2023-09-06T03:55:52.622Z,99.3
2023-09-06T03:57:33.179Z,99.3
2023-09-06T03:59:13.631Z,99.3
2023-09-06T04:00:54.306Z,99.3
2023-09-06T04:02:35.109Z,99.3
2023-09-06T04:04:15.934Z,99.2
2023-09-06T04:05:56.590Z,99.4
2023-09-06T04:07:37.062Z,99.4
2023-09-06T04:09:17.682Z,99.4
2023-09-06T04:10:58.230Z,99.5
2023-09-06T04:12:38.869Z,99.4
2023-09-06T04:14:19.373Z,99.3
2023-09-06T04:15:59.938Z,99.4
2023-09-06T04:17:40.407Z,99.4
2023-09-06T04:19:21.041Z,99.3
2023-09-06T04:21:01.595Z,99.5
2023-09-06T04:22:42.073Z,99.5
2023-09-06T04:24:22.875Z,99.5
2023-09-06T04:26:03.485Z,99.4
2023-09-06T04:27:44.148Z,99.4
2023-09-06T04:29:24.710Z,99.4
2023-09-06T04:31:05.379Z,99.2
2023-09-06T04:32:45.947Z,99.3
2023-09-06T04:34:26.481Z,99.2
2023-09-06T04:36:06.938Z,99.1
2023-09-06T04:37:47.391Z,99.2
2023-09-06T04:39:27.980Z,99.1
2023-09-06T04:41:08.475Z,99.1
2023-09-06T04:42:48.963Z,99.1
2023-09-06T04:44:29.534Z,99.1
2023-09-06T04:46:10.002Z,99.2
2023-09-06T04:47:51.926Z,99.1
2023-09-06T04:49:32.538Z,99.2
2023-09-06T04:51:12.977Z,99.2
2023-09-06T04:52:53.433Z,99
2023-09-06T04:54:34.043Z,99.1
2023-09-06T04:56:14.564Z,99
2023-09-06T04:57:55.037Z,99.1
2023-09-06T04:59:35.602Z,99.2
2023-09-06T05:01:16.292Z,99
2023-09-06T05:02:56.894Z,98.9
2023-09-06T05:04:37.554Z,99
2023-09-06T05:06:18.881Z,98.8
2023-09-06T05:07:59.398Z,98.9
2023-09-06T05:09:39.960Z,98.9
2023-09-06T05:11:20.696Z,99
2023-09-06T05:13:01.276Z,98.9
2023-09-06T05:14:41.711Z,98.9
2023-09-06T05:16:22.371Z,98.8
2023-09-06T05:18:03.106Z,98.9
2023-09-06T05:19:43.600Z,98.8
2023-09-06T05:21:24.111Z,98.9
2023-09-06T05:23:04.743Z,99
2023-09-06T05:24:45.379Z,98.8
2023-09-06T05:26:25.979Z,98.9
2023-09-06T05:28:06.592Z,98.9
2023-09-06T05:29:47.152Z,98.9
2023-09-06T05:31:27.840Z,98.8
2023-09-06T05:33:08.635Z,98.7
2023-09-06T05:34:49.331Z,98.8
2023-09-06T05:36:29.796Z,98.7
2023-09-06T05:38:10.243Z,98.7
2023-09-06T05:39:50.835Z,98.8
2023-09-06T05:43:28.619Z,98.7
2023-09-06T05:45:09.084Z,98.6
2023-09-06T05:46:49.610Z,98.8
2023-09-06T05:48:30.686Z,98.7
2023-09-06T05:50:11.626Z,98.7
2023-09-06T05:51:52.116Z,98.7
2023-09-06T05:53:32.612Z,98.7
2023-09-06T05:55:13.223Z,98.8
2023-09-06T05:56:53.711Z,98.7
2023-09-06T05:58:34.153Z,98.6
2023-09-06T06:00:14.771Z,98.7
2023-09-06T06:01:55.395Z,98.7
2023-09-06T06:03:36.103Z,98.7
2023-09-06T06:05:16.703Z,98.7
2023-09-06T06:06:57.216Z,98.7
2023-09-06T06:08:37.799Z,98.6
2023-09-06T06:10:18.549Z,98.6
2023-09-06T06:11:59.048Z,98.5
2023-09-06T06:13:39.764Z,98.4
2023-09-06T06:15:20.248Z,98.4
2023-09-06T06:17:00.770Z,98.4
2023-09-06T06:18:41.385Z,98.5
2023-09-06T06:20:43.728Z,98.3
2023-09-06T06:22:24.904Z,98.2
2023-09-06T06:24:05.358Z,98.4
2023-09-06T06:25:45.904Z,98.5
2023-09-06T06:27:26.635Z,98.3
2023-09-06T06:29:07.987Z,98.3
2023-09-06T06:30:48.924Z,98.4
2023-09-06T06:32:29.475Z,98.3
2023-09-06T06:34:10.040Z,98.2
2023-09-06T06:35:50.523Z,98.2
2023-09-06T06:37:31.149Z,98.3
2023-09-06T06:39:11.611Z,98.2
2023-09-06T06:40:52.812Z,98
2023-09-06T06:42:33.460Z,98.1
2023-09-06T06:44:14.098Z,98.1
2023-09-06T06:45:54.822Z,98
2023-09-06T06:47:35.491Z,98.1
2023-09-06T06:49:16.082Z,98
2023-09-06T06:50:56.534Z,98
2023-09-06T06:52:37.007Z,97.9
2023-09-06T06:54:17.617Z,98
2023-09-06T06:55:58.335Z,97.9
2023-09-06T06:57:38.882Z,97.9
2023-09-06T06:59:19.429Z,97.9
2023-09-06T07:01:00.056Z,97.8
2023-09-06T07:02:40.604Z,97.9
2023-09-06T07:04:21.110Z,97.8
2023-09-06T07:06:01.585Z,97.8
2023-09-06T07:07:42.280Z,97.8
2023-09-06T07:09:22.885Z,97.7
2023-09-06T07:11:03.432Z,97.7
2023-09-06T07:12:43.900Z,97.6
2023-09-06T07:14:24.430Z,97.5
2023-09-06T07:16:05.251Z,97.5
2023-09-06T07:17:46.082Z,97.5
2023-09-06T07:19:26.754Z,97.6
2023-09-06T07:21:07.206Z,97.5
2023-09-06T07:22:47.688Z,97.5
2023-09-06T07:24:28.251Z,97.6
2023-09-06T07:26:08.880Z,97.5
2023-09-06T07:27:49.325Z,97.5
2023-09-06T07:29:29.957Z,97.3
2023-09-06T07:31:27.649Z,97.4
2023-09-06T07:33:08.305Z,97.3
2023-09-06T07:34:48.880Z,97.3
2023-09-06T07:36:29.327Z,97.4
2023-09-06T07:38:09.899Z,97.4
2023-09-06T07:39:50.552Z,97.3
2023-09-06T07:41:31.184Z,97.4
2023-09-06T07:43:11.773Z,97.4
2023-09-06T07:44:52.322Z,97.4
2023-09-06T07:46:32.774Z,97.3
2023-09-06T07:48:13.603Z,97.2
2023-09-06T07:49:54.491Z,97.3
2023-09-06T07:51:35.060Z,97.2
2023-09-06T07:53:15.601Z,97.1
2023-09-06T07:54:56.072Z,97.1
2023-09-06T07:56:36.657Z,97.1
2023-09-06T07:58:17.299Z,97
2023-09-06T07:59:58.061Z,97.1
2023-09-06T08:03:18.929Z,96.9
2023-09-06T08:04:59.618Z,96.9
2023-09-06T08:06:40.355Z,97
2023-09-06T08:08:21.012Z,96.9
2023-09-06T08:10:01.466Z,97
2023-09-06T08:11:42.102Z,97
2023-09-06T08:13:22.591Z,97
2023-09-06T08:15:03.149Z,96.8
2023-09-06T08:16:43.786Z,96.8
2023-09-06T08:18:24.604Z,96.8
2023-09-06T08:20:05.436Z,96.9
2023-09-06T08:21:45.893Z,96.9
2023-09-06T08:23:26.341Z,96.8
2023-09-06T08:25:06.794Z,96.7
2023-09-06T08:26:47.539Z,96.7
2023-09-06T08:28:28.569Z,96.6
2023-09-06T08:30:09.826Z,96.8
2023-09-06T08:31:50.795Z,96.7
2023-09-06T08:33:31.661Z,96.5
2023-09-06T08:35:12.414Z,96.6
2023-09-06T08:36:52.963Z,96.6
2023-09-06T08:38:34.123Z,96.6
2023-09-06T08:40:15.118Z,96.6
2023-09-06T08:41:55.784Z,96.6
2023-09-06T08:43:36.216Z,96.6
2023-09-06T08:45:16.846Z,96.5
2023-09-06T08:46:57.558Z,96.5
2023-09-06T08:48:38.301Z,96.4
2023-09-06T08:50:18.966Z,96.4
2023-09-06T08:51:59.442Z,96.5
2023-09-06T08:53:39.890Z,96.6
2023-09-06T08:55:22.975Z,96.5
2023-09-06T08:57:03.614Z,96.4
2023-09-06T08:58:44.129Z,96.4
2023-09-06T09:00:24.864Z,96.4
2023-09-06T09:02:05.795Z,96.4
2023-09-06T09:03:46.588Z,96.3
2023-09-06T09:05:27.460Z,96.4
2023-09-06T09:07:08.083Z,96.4
2023-09-06T09:08:48.573Z,96.4
2023-09-06T09:10:29.201Z,96.4
2023-09-06T09:12:10.122Z,96.3
2023-09-06T09:13:50.574Z,96.3
2023-09-06T09:15:31.047Z,96.3
2023-09-06T09:17:11.652Z,96.2
2023-09-06T09:18:52.329Z,96.4
2023-09-06T09:20:33.213Z,96.3
2023-09-06T09:22:13.864Z,96.4
2023-09-06T09:23:54.364Z,96.4
2023-09-06T09:25:34.773Z,96.4
2023-09-06T09:27:15.335Z,96.3
2023-09-06T09:28:55.884Z,96.4
2023-09-06T09:30:36.364Z,96.2
2023-09-06T09:32:16.913Z,96.2
2023-09-06T09:33:57.550Z,96.2
2023-09-06T09:35:38.112Z,96.2
2023-09-06T09:37:18.673Z,96.3
2023-09-06T09:38:59.129Z,96.2
2023-09-06T09:40:54.047Z,96.2
2023-09-06T09:42:34.754Z,96.3
2023-09-06T09:44:15.358Z,96.4
2023-09-06T09:45:55.893Z,96.3
2023-09-06T09:47:52.920Z,96.3
2023-09-06T09:49:34.302Z,96.2
2023-09-06T09:51:14.961Z,96.3
2023-09-06T09:55:17.105Z,96.4
2023-09-06T09:56:57.786Z,96.3
2023-09-06T09:58:38.423Z,96.3
2023-09-06T10:00:18.977Z,96.3
2023-09-06T10:01:59.848Z,96.3
2023-09-06T10:03:40.636Z,96.4
2023-09-06T10:05:21.889Z,96.4
2023-09-06T10:07:02.760Z,96.3
2023-09-06T10:08:46.185Z,96.4
2023-09-06T10:10:27.582Z,96.4
2023-09-06T10:12:08.128Z,96.4
2023-09-06T10:13:48.614Z,96.3
2023-09-06T10:15:29.089Z,96.4
2023-09-06T10:17:09.707Z,96.5
2023-09-06T10:18:50.230Z,96.5
2023-09-06T10:20:30.823Z,96.4
2023-09-06T10:22:11.269Z,96.6
2023-09-06T10:23:51.753Z,96.5
2023-09-06T10:25:32.281Z,96.5
2023-09-06T10:27:12.748Z,96.5
2023-09-06T10:28:53.320Z,96.5
2023-09-06T10:30:33.872Z,96.6
2023-09-06T10:32:14.475Z,96.5
2023-09-06T10:33:54.982Z,96.6
2023-09-06T10:35:35.418Z,96.6
2023-09-06T10:37:15.996Z,96.7
2023-09-06T10:38:56.647Z,96.7
2023-09-06T10:40:37.096Z,96.6
2023-09-06T10:42:18.736Z,96.7
2023-09-06T10:43:59.426Z,96.8
2023-09-06T10:45:40.041Z,96.8
2023-09-06T10:47:20.677Z,96.7
2023-09-06T10:49:01.101Z,96.7
2023-09-06T10:50:41.675Z,96.7
2023-09-06T10:52:22.254Z,96.8
2023-09-06T10:54:02.894Z,96.7
2023-09-06T10:55:43.443Z,96.8
2023-09-06T10:57:24.025Z,96.8
2023-09-06T10:59:04.548Z,96.8
2023-09-06T11:00:45.034Z,96.8
2023-09-06T11:02:25.680Z,96.8
2023-09-06T11:04:06.525Z,96.9
2023-09-06T11:05:47.118Z,96.8
2023-09-06T11:07:49.067Z,97
2023-09-06T11:09:30.753Z,96.8
2023-09-06T11:11:11.227Z,96.9
2023-09-06T11:12:51.671Z,97
2023-09-06T11:14:32.203Z,97.1
2023-09-06T11:16:12.755Z,97
2023-09-06T11:17:53.762Z,97
2023-09-06T11:19:34.640Z,97.1
2023-09-06T11:21:15.134Z,97.1
2023-09-06T11:22:55.630Z,97.1
2023-09-06T11:24:36.095Z,97.1
2023-09-06T11:26:16.656Z,97.1
2023-09-06T11:27:57.097Z,97
2023-09-06T11:29:37.635Z,97.2
2023-09-06T11:31:18.149Z,97.2
2023-09-06T11:32:58.858Z,97.2
2023-09-06T11:34:39.627Z,97.2
2023-09-06T11:36:23.834Z,97.2
2023-09-06T11:38:04.394Z,97.2
2023-09-06T11:39:44.930Z,97.2
2023-09-06T11:41:25.346Z,97.3
2023-09-06T11:43:05.816Z,97.3
2023-09-06T11:43:22.781Z,97.3
2023-09-06T11:45:03.450Z,97.2
2023-09-06T11:46:44.138Z,97.3
2023-09-06T11:48:25.337Z,97.4
2023-09-06T11:50:05.859Z,97.4
2023-09-06T11:51:46.306Z,97.3
2023-09-06T11:53:26.883Z,97.4
2023-09-06T11:55:07.326Z,97.4
2023-09-06T11:56:47.781Z,97.5
2023-09-06T11:58:29.108Z,97.5
2023-09-06T12:00:10.473Z,97.4
2023-09-06T12:01:51.119Z,97.4
2023-09-06T12:03:31.809Z,97.5
2023-09-06T12:05:12.512Z,97.5
2023-09-06T12:06:53.140Z,97.6
2023-09-06T12:08:34.396Z,97.6
2023-09-06T12:10:15.010Z,97.6
2023-09-06T12:11:55.692Z,97.6
2023-09-06T12:13:36.532Z,97.5
2023-09-06T12:15:17.178Z,97.7
2023-09-06T12:16:57.777Z,97.7
2023-09-06T12:18:38.815Z,97.7
2023-09-06T12:20:19.697Z,97.8
2023-09-06T12:22:00.258Z,97.7
2023-09-06T12:23:40.713Z,97.7
2023-09-06T12:25:21.323Z,97.8
2023-09-06T12:27:01.872Z,97.8
2023-09-06T12:28:42.485Z,97.9
2023-09-06T12:30:23.019Z,97.8
2023-09-06T12:32:03.498Z,97.8
2023-09-06T12:33:44.208Z,98
2023-09-06T12:35:25.001Z,97.9
2023-09-06T12:37:05.576Z,98
2023-09-06T12:38:46.094Z,98
2023-09-06T12:40:26.679Z,98
2023-09-06T12:42:07.268Z,98.1
2023-09-06T12:43:48.016Z,98.1
2023-09-06T12:45:28.697Z,98.1
2023-09-06T12:47:09.130Z,98.1
2023-09-06T12:48:49.810Z,98.2
2023-09-06T12:50:30.662Z,98.2
2023-09-06T12:52:11.112Z,98.2
2023-09-06T12:53:51.649Z,98.3
2023-09-06T12:55:32.229Z,98.3
2023-09-06T12:57:12.769Z,98.3
2023-09-06T12:58:53.361Z,98.4
2023-09-06T13:00:34.083Z,98.4
2023-09-06T13:02:14.681Z,98.4
2023-09-06T13:03:55.497Z,98.4
2023-09-06T13:05:36.363Z,98.4
2023-09-06T13:07:16.955Z,98.4
2023-09-06T13:08:57.632Z,98.4
2023-09-06T13:10:38.142Z,98.6
2023-09-06T13:12:18.644Z,98.5
2023-09-06T13:14:02.243Z,98.6
2023-09-06T13:15:43.212Z,98.6
2023-09-06T13:17:24.109Z,98.6
2023-09-06T13:19:04.919Z,98.6
2023-09-06T13:20:45.615Z,98.6
2023-09-06T13:22:26.077Z,98.6
2023-09-06T13:24:06.494Z,98.7
2023-09-06T13:25:47.022Z,98.7
2023-09-06T13:27:27.558Z,98.7
2023-09-06T13:29:07.996Z,98.7
2023-09-06T13:30:48.771Z,98.7
2023-09-06T13:32:29.498Z,98.8
2023-09-06T13:32:46.627Z,98.8
2023-09-06T13:34:27.248Z,98.8
2023-09-06T13:36:07.779Z,98.8
2023-09-06T13:37:48.213Z,98.8
2023-09-06T13:39:28.664Z,98.8
2023-09-06T13:41:09.133Z,98.9
2023-09-06T13:42:49.650Z,98.9
2023-09-06T13:44:30.286Z,98.9
2023-09-06T13:46:10.931Z,98.9
2023-09-06T13:47:51.751Z,98.9
2023-09-06T13:49:32.317Z,98.9
2023-09-06T13:51:12.841Z,98.9
2023-09-06T13:52:53.430Z,98.9
2023-09-06T13:54:33.903Z,98.9
2023-09-06T13:56:14.353Z,98.9
2023-09-06T13:57:54.891Z,99
2023-09-06T13:59:35.372Z,99
2023-09-06T14:03:22.504Z,99.1
2023-09-06T14:05:03.298Z,99.1
2023-09-06T14:06:43.848Z,99.1
2023-09-06T14:08:24.320Z,99.1
2023-09-06T14:10:04.956Z,99.1
2023-09-06T14:11:45.420Z,99.1
2023-09-06T14:13:25.900Z,99.1
2023-09-06T14:15:06.318Z,99.1
2023-09-06T14:16:46.909Z,99.2
2023-09-06T14:18:27.651Z,99.2
2023-09-06T14:20:08.508Z,99.2
2023-09-06T14:21:48.979Z,99.2
2023-09-06T14:23:29.455Z,99.2
2023-09-06T14:25:09.991Z,99.2
2023-09-06T14:26:50.429Z,99.3
2023-09-06T14:28:32.249Z,99.2
2023-09-06T14:30:13.752Z,99.2
2023-09-06T14:31:54.340Z,99.2
2023-09-06T14:33:35.665Z,99.2
2023-09-06T14:35:16.355Z,99.3
2023-09-06T14:36:57.039Z,99.3
2023-09-06T14:38:37.698Z,99.3
2023-09-06T14:40:18.370Z,99.3
2023-09-06T14:41:58.963Z,99.3
2023-09-06T14:43:39.480Z,99.3
2023-09-06T14:45:19.949Z,99.4
2023-09-06T14:47:00.553Z,99.3
2023-09-06T14:48:41.403Z,99.4
2023-09-06T14:50:22.127Z,99.3
2023-09-06T14:52:03.466Z,99.4
2023-09-06T14:53:43.994Z,99.3
2023-09-06T14:55:24.419Z,99.4
2023-09-06T14:57:04.879Z,99.4
2023-09-06T14:58:45.337Z,99.4
2023-09-06T15:00:25.851Z,99.4
2023-09-06T15:02:06.435Z,99.4
2023-09-06T15:03:47.831Z,99.4
2023-09-06T15:05:28.500Z,99.4
2023-09-06T15:07:08.937Z,99.5
2023-09-06T15:08:49.504Z,99.4
2023-09-06T15:10:30.177Z,99.4
2023-09-06T15:12:10.829Z,99.4
2023-09-06T15:13:51.373Z,99.5
2023-09-06T15:15:31.953Z,99.5
2023-09-06T15:17:12.382Z,99.5
2023-09-06T15:18:53.078Z,99.5
2023-09-06T15:20:33.826Z,99.5
2023-09-06T15:22:37.045Z,99.4
2023-09-06T15:24:19.120Z,99.4
2023-09-06T15:25:59.748Z,99.5
2023-09-06T15:27:40.319Z,99.5
2023-09-06T15:29:20.791Z,99.5
2023-09-06T15:31:01.418Z,99.5
2023-09-06T15:32:41.902Z,99.5
2023-09-06T15:34:22.565Z,99.6
2023-09-06T15:36:05.443Z,99.5
2023-09-06T15:37:46.029Z,99.6
2023-09-06T15:39:26.483Z,99.6
2023-09-06T15:41:07.043Z,99.6
2023-09-06T15:42:47.550Z,99.6
2023-09-06T15:44:28.144Z,99.6
2023-09-06T15:46:08.799Z,99.6
2023-09-06T15:47:49.535Z,99.6
2023-09-06T15:49:30.060Z,99.6
2023-09-06T15:51:10.683Z,99.6
2023-09-06T15:54:48.663Z,99.6
2023-09-06T15:56:29.247Z,99.6
2023-09-06T15:58:09.790Z,99.7
2023-09-06T15:59:50.241Z,99.7
2023-09-06T16:01:33.231Z,99.7
2023-09-06T16:03:14.007Z,99.7
2023-09-06T16:04:54.805Z,99.7
2023-09-06T16:06:35.382Z,99.7
2023-09-06T16:08:15.802Z,99.7
2023-09-06T16:09:56.357Z,99.7
2023-09-06T16:11:36.827Z,99.7
2023-09-06T16:13:17.273Z,99.7
2023-09-06T16:14:57.777Z,99.7
2023-09-06T16:16:38.421Z,99.7
2023-09-06T16:18:19.241Z,99.7
2023-09-06T16:19:59.837Z,99.7
2023-09-06T16:21:40.434Z,99.7
2023-09-06T16:23:20.923Z,99.7
2023-09-06T16:25:01.363Z,99.8
2023-09-06T16:26:42.082Z,99.8
2023-09-06T16:28:22.808Z,99.8
2023-09-06T16:30:03.733Z,99.8
2023-09-06T16:31:44.433Z,99.8
2023-09-06T16:33:25.114Z,99.8
2023-09-06T16:35:05.940Z,99.8
2023-09-06T16:36:46.511Z,99.8
2023-09-06T16:38:27.289Z,99.8
2023-09-06T16:40:08.602Z,99.8
2023-09-06T16:41:49.215Z,99.8
2023-09-06T16:43:29.679Z,99.8
2023-09-06T16:45:10.181Z,99.8
2023-09-06T16:46:50.916Z,99.8
2023-09-06T16:48:32.366Z,99.8
2023-09-06T16:50:13.545Z,99.8
2023-09-06T16:51:54.054Z,99.9
2023-09-06T16:53:34.654Z,99.9
2023-09-06T16:55:15.198Z,99.9
2023-09-06T16:56:55.673Z,99.8
2023-09-06T16:58:36.290Z,99.9
2023-09-06T17:00:16.889Z,99.9
2023-09-06T17:01:57.568Z,99.9
2023-09-06T17:03:38.225Z,99.9
2023-09-06T17:05:18.802Z,99.9
2023-09-06T17:06:59.425Z,99.9
2023-09-06T17:08:39.890Z,99.9
2023-09-06T17:10:20.542Z,99.9
2023-09-06T17:12:01.208Z,99.9
2023-09-06T17:13:42.195Z,99.9
2023-09-06T17:15:22.776Z,99.9
2023-09-06T17:17:03.523Z,99.9
2023-09-06T17:18:44.543Z,99.9
2023-09-06T17:20:25.448Z,99.9
2023-09-06T17:22:05.883Z,99.9
2023-09-06T17:24:04.067Z,99.9
2023-09-06T17:25:44.799Z,99.9
2023-09-06T17:27:25.288Z,100
2023-09-06T17:29:05.735Z,100
2023-09-06T17:30:46.489Z,100
2023-09-06T17:32:27.216Z,100
2023-09-06T17:34:07.969Z,100
2023-09-06T17:35:48.495Z,99.9
2023-09-06T17:37:29.248Z,100
2023-09-06T17:39:09.689Z,100
2023-09-06T17:40:50.468Z,100
2023-09-06T17:42:31.134Z,100
2023-09-06T17:44:31.483Z,100
2023-09-06T17:46:12.028Z,100
2023-09-06T17:47:52.899Z,100
2023-09-06T17:49:33.975Z,100
2023-09-06T17:51:15.496Z,100
2023-09-06T17:52:57.109Z,100
2023-09-06T17:54:37.555Z,100
2023-09-06T17:56:18.030Z,100
2023-09-06T17:57:58.462Z,100
2023-09-06T17:59:38.927Z,100
2023-09-06T18:01:19.529Z,100
2023-09-06T18:03:00.548Z,100
2023-09-06T18:04:41.705Z,100
2023-09-06T18:06:23.009Z,100
2023-09-06T18:08:03.650Z,100
2023-09-06T18:09:44.133Z,100
2023-09-06T18:11:24.958Z,100
2023-09-06T18:13:05.743Z,100
2023-09-06T18:14:46.225Z,100
2023-09-06T18:16:26.917Z,100
2023-09-06T18:18:07.611Z,100
2023-09-06T18:19:48.196Z,100
2023-09-06T18:21:28.660Z,100
2023-09-06T18:23:09.291Z,100
2023-09-06T18:24:49.762Z,100
2023-09-06T18:26:30.211Z,100
2023-09-06T18:28:10.921Z,100
2023-09-06T18:29:51.423Z,100
2023-09-06T18:31:31.973Z,100
2023-09-06T18:33:12.640Z,100
2023-09-06T18:34:53.226Z,100
2023-09-06T18:36:33.807Z,100
2023-09-06T18:38:14.240Z,100
2023-09-06T18:39:54.938Z,100
2023-09-06T18:41:35.539Z,100
2023-09-06T18:43:16.015Z,100
2023-09-06T18:44:56.540Z,100
2023-09-06T18:46:37.133Z,100
2023-09-06T18:48:17.880Z,100
2023-09-06T18:49:58.673Z,100
2023-09-06T18:51:39.208Z,100
2023-09-06T18:53:19.805Z,100
2023-09-06T18:55:00.297Z,100
2023-09-06T18:56:40.759Z,100
2023-09-06T18:58:21.222Z,100
2023-09-06T19:00:01.677Z,100
2023-09-06T19:01:42.122Z,100
2023-09-06T19:03:22.661Z,100
2023-09-06T19:05:03.222Z,100
2023-09-06T19:06:43.736Z,100
2023-09-06T19:08:24.459Z,100
2023-09-06T19:10:05.218Z,100
2023-09-06T19:11:45.769Z,100
2023-09-06T19:13:26.346Z,100
2023-09-06T19:15:06.790Z,100
2023-09-06T19:16:47.335Z,100
2023-09-06T19:18:28.269Z,100
2023-09-06T19:20:09.488Z,100
2023-09-06T19:21:50.256Z,100
2023-09-06T19:23:30.889Z,100
2023-09-06T19:25:11.678Z,100
2023-09-06T19:26:52.170Z,100
2023-09-06T19:28:33.173Z,100
2023-09-06T19:31:54.240Z,100
2023-09-06T19:33:51.636Z,100
2023-09-06T19:35:32.431Z,100
2023-09-06T19:37:13.087Z,100
2023-09-06T19:38:53.750Z,100
2023-09-06T19:40:34.439Z,100
2023-09-06T19:42:14.994Z,100
2023-09-06T19:43:55.546Z,100
2023-09-06T19:45:36.012Z,100
2023-09-06T19:47:16.457Z,100
2023-09-06T19:49:07.685Z,100
2023-09-06T19:50:48.512Z,100
2023-09-06T19:52:29.109Z,100
2023-09-06T19:54:09.539Z,100
2023-09-06T19:55:50.005Z,100
2023-09-06T19:57:30.580Z,100
2023-09-06T19:59:11.230Z,100
2023-09-06T20:00:51.677Z,100
2023-09-06T20:02:32.608Z,100
2023-09-06T20:04:14.040Z,100
2023-09-06T20:05:54.863Z,100
2023-09-06T20:07:35.483Z,100
2023-09-06T20:09:16.157Z,100
2023-09-06T20:10:56.652Z,100
2023-09-06T20:12:37.116Z,100
2023-09-06T20:14:17.613Z,100
2023-09-06T20:15:58.202Z,100
2023-09-06T20:17:38.914Z,100
2023-09-06T20:19:22.258Z,100
2023-09-06T20:21:02.830Z,100
2023-09-06T20:22:43.350Z,100
2023-09-06T20:24:23.792Z,100
2023-09-06T20:26:04.244Z,100
2023-09-06T20:27:44.703Z,100
2023-09-06T20:29:25.214Z,100
2023-09-06T20:31:05.699Z,100
2023-09-06T20:32:46.450Z,100
2023-09-06T20:34:27.130Z,100
2023-09-06T20:36:07.685Z,100
2023-09-06T20:37:48.228Z,100
2023-09-06T20:39:28.703Z,100
2023-09-06T20:41:09.212Z,100
2023-09-06T20:42:49.717Z,100
2023-09-06T20:44:33.882Z,100
2023-09-06T20:46:14.759Z,100
2023-09-06T20:47:55.529Z,100
2023-09-06T20:49:36.149Z,100
2023-09-06T20:51:16.674Z,100
2023-09-06T20:52:57.179Z,100
2023-09-06T20:54:37.725Z,100
2023-09-06T20:56:18.288Z,100
2023-09-06T20:57:58.805Z,100
2023-09-06T20:59:39.484Z,100
2023-09-06T21:03:14.107Z,100
2023-09-06T21:04:54.917Z,100
2023-09-06T21:06:35.659Z,100
2023-09-06T21:08:16.234Z,100
2023-09-06T21:09:56.671Z,100
2023-09-06T21:11:37.201Z,100
2023-09-06T21:13:17.677Z,100
2023-09-06T21:14:58.233Z,100
2023-09-06T21:16:38.825Z,100
2023-09-06T21:18:19.365Z,100
2023-09-06T21:20:00.195Z,100
2023-09-06T21:21:40.681Z,100
2023-09-06T21:23:21.158Z,100
2023-09-06T21:25:01.714Z,100
2023-09-06T21:26:42.320Z,100
2023-09-06T21:28:22.911Z,100
2023-09-06T21:30:03.423Z,100
2023-09-06T21:31:43.994Z,100
2023-09-06T21:33:24.719Z,100
2023-09-06T21:35:05.445Z,100
2023-09-06T21:36:45.911Z,100
2023-09-06T21:38:26.531Z,100
2023-09-06T21:40:07.235Z,100
2023-09-06T21:41:47.676Z,100
2023-09-06T21:43:28.416Z,100
2023-09-06T21:45:09.005Z,100
2023-09-06T21:46:49.637Z,100
2023-09-06T21:48:31.899Z,100
2023-09-06T21:50:13.753Z,100
2023-09-06T21:51:54.193Z,100
2023-09-06T21:53:34.745Z,100
2023-09-06T21:55:15.513Z,100
2023-09-06T21:56:55.974Z,100
2023-09-06T21:58:36.449Z,100
2023-09-06T22:00:16.882Z,100
2023-09-06T22:01:57.419Z,100
2023-09-06T22:03:38.015Z,100
2023-09-06T22:05:18.516Z,100
2023-09-06T22:06:59.046Z,100
2023-09-06T22:08:39.606Z,100
2023-09-06T22:10:20.110Z,100
2023-09-06T22:12:00.737Z,100
2023-09-06T22:13:41.259Z,100
2023-09-06T22:15:21.709Z,100
2023-09-06T22:17:02.537Z,100
2023-09-06T22:18:43.057Z,100
2023-09-06T22:20:23.578Z,100
2023-09-06T22:22:04.212Z,100
2023-09-06T22:23:44.823Z,100
2023-09-06T22:25:25.344Z,100
2023-09-06T22:27:05.987Z,100
2023-09-06T22:28:46.483Z,100
2023-09-06T22:30:26.935Z,100
2023-09-06T22:32:07.655Z,100
2023-09-06T22:33:48.462Z,100
2023-09-06T22:35:29.254Z,100
2023-09-06T22:37:09.819Z,100
2023-09-06T22:38:50.524Z,100
2023-09-06T22:40:31.018Z,100
2023-09-06T22:42:11.460Z,100
2023-09-06T22:43:51.904Z,100
2023-09-06T22:45:32.379Z,100
2023-09-06T22:47:12.904Z,100
2023-09-06T22:48:56.092Z,100
2023-09-06T22:50:36.908Z,100
2023-09-06T22:52:17.468Z,100